TDPD/DOM METAR and TAF weather

Enter ICAO airport designator
Station Type Date Time Source
TDPD METAR 2019/08/23 23:00 UTC NOAA

TDPD 232300Z 25001KT 9999 BKN020 26/24 Q1016


Station Type Date Time Source
TDPD Decoded METAR 2019/08/23 23:00 UTC NOAA

Station name not available
Aug 23, 2019 - 07:00 PM EDT / 2019.08.23 2300 UTC
Wind: from the WSW (250 degrees) at 1 MPH (1 KT):0
Visibility: greater than 7 mile(s):0
Sky conditions: mostly cloudy
Temperature: 78 F (26 C)
Dew Point: 75 F (24 C)
Relative Humidity: 88%
Pressure (altimeter): 30.00 in. Hg (1016 hPa)
ob: TDPD 232300Z 25001KT 9999 BKN020 26/24 Q1016
cycle: 23

Station Type Date Time Source
TDPD TAF 2019/08/23 12:17 UTC NOAA

TAF TDPD 231100Z 2312/2412 11010KT 9999 SCT018 PROB30
TEMPO 2403/2408 SHRA SCT012CB BKN014

Example: see airport list